Aeroporto :
LOGIN :

Iscrizione | Disclaimer

   EN    FR    IT 

 










Sommario :    VFR   VFR Marginale   IFR   IFR Intensivo   IFR Molto Intensivo
Visibilità : 
Base nubi : 
>= 8 km
>= 3000ft
5 / 8 km
1000 / 3000 ft
1500m / 5 km
500 / 1000 ft
800 / 1500m
200 / 500 ft
< 800m
< 200 ft
Simboli :   Temporali  Nebbia  Neve Forte  Precipitazioni Forti  Vento > 20 kt
SIGMETs :   Varie  Temporali  Ghiacco  Turbolenza  Onda orograficha  Ceneri Vulcaniche






- Altitudine del aeroporto : 506 ft
- Codice IATA : GOT


ESGG - Landvetter

ULTIMO METAR :
  • 221250Z 12011KT 9999 BKN008 06/05 Q1012 R21/29//95

METARs OBSOLETI :
  • 221220Z 12012KT 9999 BKN007 06/05 Q1011 R21/29//95
  • 221150Z 12013KT 9999 BKN007 06/05 Q1011 R21/29//95
  • 221120Z 12012KT 9999 BKN006 06/05 Q1012 R21/29//95
  • 221050Z 12012KT 9000 -DZ BKN007 06/05 Q1012 R21/29//95
  • 221020Z 11011KT 9999 BKN006 06/05 Q1012 R21/29//95

TAF TAF ESGG
Valido dal 22 a 12 ore il 23 a 12 ore UTC


221130Z 2212/2312 11012KT 9000 -RA SCT006 BKN012
PROB40 2212/2216 BKN006
BECMG 2216/2218 BKN002
PROB40 2218/2307 2000 BR
BECMG 2307/2309 BKN010



MetMap, La meteo Aeronautica in un colpo d'occhio ! - Copyright ORBIFLY Dicembre 2007 - Disclaimer

ORBIFLY MET'MAP TEAM :

Programmazione e sviluppo : Alexandra Zaïnal
Concezione e sviluppo : Baudouin d'Aumeries
Co-Programmazione e sviluppo : Marc-Olivier Méhu
Supporto tecnico e logistico : Manuel Goepfert
Aiuto per la traduzione : Arnaldo La Scala

Contatto : metmap@orbifly.com




FONTI E CREDITI :

   NOAA